Time;durP1;ratioP1;P1;durP2;ratioP2;P2;SDS_P1;SDS_P2;PMS_P1;PMS_P2;Temp;Humidity;BMP_temperature;BMP_pressure;BME280_temperature;BME280_humidity;BME280_pressure;Samples;Min_cycle;Max_cycle;Signal;HPM_P1;HPM_P2
2022/04/01 00:00:34;;;;;;;23.05;17.55;;;14.80;38.30;;;;;;4972925;28;20483;-40
2022/04/01 00:03:00;;;;;;;22.58;17.88;;;14.70;38.90;;;;;;4971698;28;20461;-40
2022/04/01 00:05:26;;;;;;;24.65;20.08;;;14.60;39.20;;;;;;4971068;28;20051;-40
2022/04/01 00:07:52;;;;;;;22.83;20.30;;;14.60;40.70;;;;;;4971812;28;20050;-39
2022/04/01 00:10:17;;;;;;;24.90;20.73;;;14.60;40.90;;;;;;4972671;28;20114;-39
2022/04/01 00:12:46;;;;;;;26.52;23.00;;;14.60;41.90;;;;;;4971678;28;20476;-39
2022/04/01 00:15:12;;;;;;;25.88;20.52;;;14.60;42.70;;;;;;4971103;28;20453;-39
2022/04/01 00:17:42;;;;;;;24.73;21.50;;;14.60;42.40;;;;;;4970141;28;20475;-39
2022/04/01 00:20:09;;;;;;;27.08;22.70;;;14.50;43.00;;;;;;4972571;28;20106;-39
2022/04/01 00:22:35;;;;;;;23.90;20.55;;;14.50;43.50;;;;;;4974888;28;20034;-39
2022/04/01 00:25:01;;;;;;;24.05;21.55;;;14.60;43.60;;;;;;4975698;28;20022;-39
2022/04/01 00:27:27;;;;;;;24.88;21.63;;;14.60;43.80;;;;;;4974891;28;20479;-40
2022/04/01 00:29:52;;;;;;;27.55;22.23;;;14.50;44.90;;;;;;4974610;28;20027;-39
2022/04/01 00:32:19;;;;;;;27.45;22.85;;;14.40;45.30;;;;;;4974959;28;20383;-39
2022/04/01 00:34:45;;;;;;;27.35;23.63;;;14.50;45.60;;;;;;4974586;28;20035;-39
2022/04/01 00:37:11;;;;;;;28.52;25.10;;;14.60;45.40;;;;;;4974893;28;20057;-39
2022/04/01 00:39:47;;;;;;;25.48;22.17;;;14.60;45.50;;;;;;4974783;28;20034;-39
2022/04/01 00:42:14;;;;;;;31.02;24.25;;;14.60;46.70;;;;;;4975089;28;20035;-39
2022/04/01 00:44:49;;;;;;;30.17;24.40;;;14.70;47.60;;;;;;4975031;28;20469;-39
2022/04/01 00:47:15;;;;;;;27.95;23.25;;;14.70;48.70;;;;;;4974941;28;20034;-39
2022/04/01 00:49:45;;;;;;;27.90;23.55;;;14.50;49.40;;;;;;4974692;28;20041;-39
2022/04/01 00:52:14;;;;;;;27.55;23.55;;;14.60;50.80;;;;;;4975538;28;20043;-39
2022/04/01 00:54:40;;;;;;;31.88;25.00;;;14.50;55.70;;;;;;4974625;28;20551;-39
2022/04/01 00:57:10;;;;;;;32.85;25.58;;;14.40;59.30;;;;;;4975345;28;20515;-39
2022/04/01 00:59:36;;;;;;;31.45;24.20;;;14.50;61.80;;;;;;4974572;28;20027;-39
2022/04/01 01:02:03;;;;;;;30.08;26.33;;;14.50;58.70;;;;;;4975334;28;20356;-39
2022/04/01 01:04:29;;;;;;;36.53;27.05;;;14.40;62.40;;;;;;4974239;28;20046;-39
2022/04/01 01:06:57;;;;;;;30.88;25.20;;;14.20;65.00;;;;;;4975028;28;20089;-39
2022/04/01 01:09:25;;;;;;;31.67;25.20;;;14.00;68.20;;;;;;4973881;28;20073;-39
2022/04/01 01:11:52;;;;;;;33.63;26.65;;;;;;;;;;4974260;28;20034;-39
2022/04/01 01:14:38;;;;;;;29.95;24.05;;;14.00;67.90;;;;;;4972780;28;20141;-39
2022/04/01 01:17:10;;;;;;;27.83;24.75;;;14.10;74.80;;;;;;4971787;28;20031;-39
2022/04/01 01:19:36;;;;;;;30.63;26.30;;;14.20;70.00;;;;;;4973846;28;20035;-39
2022/04/01 01:22:02;;;;;;;29.30;26.00;;;14.00;84.10;;;;;;4974992;28;20031;-39
2022/04/01 01:24:31;;;;;;;33.28;27.50;;;13.70;93.40;;;;;;4973779;28;20070;-39
2022/04/01 01:26:58;;;;;;;32.30;25.95;;;13.40;99.90;;;;;;4974637;28;20059;-39
2022/04/01 01:29:26;;;;;;;30.05;25.45;;;13.20;99.90;;;;;;4973817;28;20121;-39
2022/04/01 01:31:54;;;;;;;27.48;23.80;;;13.20;99.90;;;;;;4974259;28;20117;-38
2022/04/01 01:34:20;;;;;;;31.13;22.77;;;13.00;99.90;;;;;;4973717;28;20093;-39
2022/04/01 01:36:47;;;;;;;23.10;20.55;;;13.00;99.90;;;;;;4974423;28;20022;-39
2022/04/01 01:39:13;;;;;;;21.00;17.45;;;13.00;99.90;;;;;;4973972;28;20446;-39
2022/04/01 01:41:38;;;;;;;19.95;16.15;;;13.00;99.90;;;;;;4956068;28;20038;-39
2022/04/01 01:44:04;;;;;;;18.50;15.18;;;13.00;99.90;;;;;;4974049;28;20030;-39
2022/04/01 01:46:30;;;;;;;17.23;12.77;;;13.10;99.90;;;;;;4974623;28;20082;-39
2022/04/01 01:48:56;;;;;;;16.52;12.93;;;12.70;99.90;;;;;;4973499;28;20029;-39
2022/04/01 01:56:50;;;;;;;13.27;9.73;;;12.70;99.90;;;;;;4974370;28;20086;-39
2022/04/01 01:59:16;;;;;;;10.73;9.43;;;12.70;99.90;;;;;;4971730;28;20031;-38
2022/04/01 02:01:43;;;;;;;12.23;9.05;;;12.60;99.90;;;;;;4973389;28;20216;-39
2022/04/01 02:04:09;;;;;;;12.40;9.40;;;12.40;99.90;;;;;;4972962;28;20480;-39
2022/04/01 02:06:35;;;;;;;13.07;8.45;;;12.10;99.90;;;;;;4971026;28;20035;-39
2022/04/01 02:09:01;;;;;;;10.57;8.45;;;12.10;99.90;;;;;;4972397;28;20046;-39
2022/04/01 02:11:28;;;;;;;10.52;8.50;;;11.80;99.90;;;;;;4973903;28;20023;-39
2022/04/01 02:13:54;;;;;;;14.73;8.88;;;11.90;99.90;;;;;;4973076;28;20023;-39
2022/04/01 02:16:21;;;;;;;10.55;8.20;;;11.80;99.90;;;;;;4972527;28;20023;-39
2022/04/01 02:18:48;;;;;;;10.77;8.40;;;11.80;99.90;;;;;;4972889;28;20130;-39
2022/04/01 02:21:15;;;;;;;10.63;8.15;;;11.80;99.90;;;;;;4973780;28;20081;-39
2022/04/01 02:23:43;;;;;;;12.35;8.02;;;11.90;99.90;;;;;;4972154;28;20027;-39
2022/04/01 02:26:10;;;;;;;12.27;9.25;;;12.00;99.90;;;;;;4973109;28;20023;-40
2022/04/01 02:28:36;;;;;;;9.65;8.30;;;11.90;99.90;;;;;;4973023;28;20110;-39
2022/04/01 02:31:04;;;;;;;8.57;7.70;;;11.80;99.90;;;;;;4973848;28;20084;-39
2022/04/01 02:33:31;;;;;;;12.38;7.38;;;11.40;99.90;;;;;;4971171;28;20031;-40
2022/04/01 02:35:57;;;;;;;12.55;8.05;;;;;;;;;;4972170;28;20027;-39
2022/04/01 02:38:27;;;;;;;11.43;8.95;;;11.40;99.90;;;;;;4971220;28;20023;-40
2022/04/01 02:40:54;;;;;;;9.77;7.35;;;11.50;99.90;;;;;;4973605;28;20395;-39
2022/04/01 02:43:23;;;;;;;9.32;8.32;;;11.50;99.90;;;;;;4972333;28;20026;-40
2022/04/01 02:45:50;;;;;;;11.50;8.82;;;11.50;99.90;;;;;;4973653;28;20045;-40
2022/04/01 02:48:17;;;;;;;12.68;10.35;;;11.50;99.90;;;;;;4972724;28;20122;-39
2022/04/01 02:50:47;;;;;;;12.38;9.02;;;11.50;99.90;;;;;;4972838;28;20456;-40
2022/04/01 02:53:14;;;;;;;12.02;10.00;;;11.50;99.90;;;;;;4972725;28;20062;-39
2022/04/01 02:55:40;;;;;;;12.05;9.38;;;11.70;99.90;;;;;;4971970;28;20023;-39
2022/04/01 02:58:06;;;;;;;11.70;9.52;;;11.70;99.90;;;;;;4972499;28;20110;-39
2022/04/01 03:00:34;;;;;;;11.00;9.48;;;11.70;99.90;;;;;;4973472;28;20114;-42
2022/04/01 03:03:00;;;;;;;12.07;8.68;;;11.70;99.90;;;;;;4972404;28;20472;-39
2022/04/01 03:05:27;;;;;;;13.02;9.57;;;11.50;99.90;;;;;;4949958;29;20054;-39
2022/04/01 03:07:53;;;;;;;11.07;8.60;;;11.50;99.90;;;;;;4952347;29;20493;-39
2022/04/01 03:10:23;;;;;;;14.07;7.60;;;11.80;99.90;;;;;;4951985;29;20035;-39
2022/04/01 03:12:49;;;;;;;11.15;7.55;;;11.70;99.90;;;;;;4968401;28;20523;-39
2022/04/01 03:15:15;;;;;;;10.20;6.72;;;11.60;99.90;;;;;;4935173;28;20027;-40
2022/04/01 03:17:41;;;;;;;9.38;6.50;;;11.40;99.90;;;;;;4933388;29;20094;-39
2022/04/01 03:20:13;;;;;;;7.90;5.35;;;11.50;99.90;;;;;;4948375;29;20114;-39
2022/04/01 03:22:45;;;;;;;7.95;6.22;;;11.40;99.90;;;;;;4952605;29;20068;-39
2022/04/01 03:25:15;;;;;;;5.40;4.85;;;11.70;99.90;;;;;;4934942;29;20039;-40
2022/04/01 03:27:41;;;;;;;7.35;5.43;;;11.30;99.90;;;;;;4934465;29;20027;-39
2022/04/01 03:30:21;;;;;;;9.32;5.28;;;11.50;99.90;;;;;;4947289;29;20139;-40
2022/04/01 03:32:47;;;;;;;8.35;4.90;;;11.60;99.90;;;;;;4932423;29;20107;-40
2022/04/01 03:35:17;;;;;;;7.35;4.50;;;11.50;99.90;;;;;;4933672;29;20039;-39
2022/04/01 03:37:45;;;;;;;6.13;4.28;;;11.70;99.90;;;;;;4934591;29;20038;-39
2022/04/01 03:40:14;;;;;;;8.32;4.60;;;11.80;99.90;;;;;;4949260;29;20167;-39
2022/04/01 03:42:44;;;;;;;5.20;4.70;;;11.90;99.90;;;;;;4953642;28;20027;-39
2022/04/01 03:45:12;;;;;;;7.82;4.50;;;11.80;99.90;;;;;;4936655;28;20058;-39
2022/04/01 03:47:40;;;;;;;6.47;4.85;;;11.80;99.90;;;;;;4934440;29;20032;-39
2022/04/01 03:50:09;;;;;;;8.52;5.05;;;11.90;99.90;;;;;;4948368;29;20389;-39
2022/04/01 03:52:36;;;;;;;7.18;5.82;;;12.00;99.90;;;;;;4953386;28;20028;-39
2022/04/01 03:55:09;;;;;;;6.72;5.97;;;12.00;99.90;;;;;;4940781;28;20067;-40
2022/04/01 03:57:37;;;;;;;8.02;7.22;;;12.10;99.90;;;;;;4942551;29;20114;-40
2022/04/01 04:00:12;;;;;;;11.52;7.47;;;12.10;99.90;;;;;;4941594;28;20036;-40
2022/04/01 04:02:42;;;;;;;7.93;7.15;;;12.20;99.90;;;;;;4955197;29;20039;-40
2022/04/01 04:05:09;;;;;;;11.05;7.38;;;12.20;99.90;;;;;;4939854;29;20067;-40
2022/04/01 04:07:39;;;;;;;10.40;7.82;;;12.30;99.90;;;;;;4937956;29;20023;-40
2022/04/01 04:10:06;;;;;;;10.18;7.85;;;12.40;99.90;;;;;;4937020;28;20028;-40
2022/04/01 04:12:35;;;;;;;11.05;8.48;;;12.30;99.90;;;;;;4937750;29;20040;-40
2022/04/01 04:15:01;;;;;;;13.00;8.30;;;12.30;99.90;;;;;;4937354;29;20115;-40
2022/04/01 04:17:35;;;;;;;9.38;7.95;;;12.20;99.90;;;;;;4938243;29;20032;-40
2022/04/01 04:20:07;;;;;;;8.88;7.57;;;12.50;99.90;;;;;;4936995;29;20024;-40
2022/04/01 04:22:55;;;;;;;9.73;7.65;;;12.50;99.90;;;;;;4937992;29;20031;-40
2022/04/01 04:25:32;;;;;;;11.00;7.80;;;12.50;99.90;;;;;;4936759;29;20030;-39
2022/04/01 04:28:00;;;;;;;10.00;7.63;;;12.40;99.90;;;;;;4936875;29;20068;-39
2022/04/01 04:30:34;;;;;;;8.32;7.13;;;12.50;99.90;;;;;;4936695;29;20438;-39
2022/04/01 04:33:06;;;;;;;11.45;8.48;;;12.50;99.90;;;;;;4937390;29;20075;-39
2022/04/01 04:35:36;;;;;;;9.65;8.48;;;12.30;99.90;;;;;;4936435;29;20111;-39
2022/04/01 04:38:03;;;;;;;11.07;8.98;;;12.40;99.90;;;;;;4936610;29;20035;-39
2022/04/01 04:40:30;;;;;;;11.45;9.43;;;12.40;99.90;;;;;;4936481;29;20067;-39
2022/04/01 04:42:55;;;;;;;13.00;9.38;;;12.20;99.90;;;;;;4937247;29;20032;-40
2022/04/01 04:45:24;;;;;;;13.98;9.85;;;12.10;99.90;;;;;;4936436;29;20107;-39
2022/04/01 04:47:50;;;;;;;15.20;10.73;;;12.20;99.90;;;;;;4937368;29;20114;-40
2022/04/01 04:50:17;;;;;;;14.77;9.63;;;12.10;99.90;;;;;;4936388;29;20099;-39
2022/04/01 04:52:48;;;;;;;12.93;9.90;;;12.20;99.90;;;;;;4936965;29;20054;-39
2022/04/01 04:55:14;;;;;;;15.52;10.95;;;12.20;99.90;;;;;;4950955;28;20466;-39
2022/04/01 04:57:42;;;;;;;15.10;10.40;;;12.20;99.90;;;;;;4937069;29;20042;-39
2022/04/01 05:00:08;;;;;;;13.68;10.35;;;12.30;99.90;;;;;;4950759;28;20031;-39
2022/04/01 05:02:58;;;;;;;14.70;10.48;;;12.30;99.90;;;;;;4936951;29;20023;-39
2022/04/01 05:05:32;;;;;;;11.93;9.20;;;12.30;99.90;;;;;;4954329;28;20078;-40
2022/04/01 05:08:25;;;;;;;11.73;8.45;;;12.40;99.90;;;;;;4972478;28;20086;-39
2022/04/01 05:11:29;;;;;;;10.77;8.55;;;12.30;99.90;;;;;;4971352;28;20039;-39
2022/04/01 05:14:00;;;;;;;10.43;7.57;;;12.40;99.90;;;;;;4954530;28;20447;-39
2022/04/01 05:16:57;;;;;;;10.40;7.68;;;12.40;99.90;;;;;;4973944;28;20062;-39
2022/04/01 05:19:31;;;;;;;9.10;7.65;;;12.40;99.90;;;;;;4972903;28;20037;-39
2022/04/01 05:22:02;;;;;;;11.30;7.25;;;12.40;99.90;;;;;;4974513;28;20023;-39
2022/04/01 05:24:47;;;;;;;10.48;7.93;;;12.50;99.90;;;;;;4973545;28;20143;-39
2022/04/01 05:27:28;;;;;;;8.05;7.13;;;12.40;99.90;;;;;;4974777;28;20026;-39
2022/04/01 05:30:13;;;;;;;11.43;8.13;;;12.50;99.90;;;;;;4974097;28;20039;-39
2022/04/01 05:32:41;;;;;;;8.13;6.68;;;12.60;99.90;;;;;;4974977;28;20039;-39
2022/04/01 05:35:07;;;;;;;13.30;7.82;;;12.60;99.90;;;;;;4973755;28;20073;-39
2022/04/01 05:37:35;;;;;;;13.00;8.20;;;12.60;99.90;;;;;;4974608;28;20030;-40
2022/04/01 05:40:05;;;;;;;12.63;8.48;;;12.70;99.90;;;;;;4973880;28;20042;-40
2022/04/01 05:42:32;;;;;;;10.95;7.50;;;12.70;99.90;;;;;;4974592;28;20476;-40
2022/04/01 05:45:00;;;;;;;9.18;7.35;;;12.70;99.90;;;;;;4973831;28;20027;-40
2022/04/01 05:47:30;;;;;;;9.77;8.57;;;12.70;99.90;;;;;;4974507;28;20058;-40
2022/04/01 05:49:58;;;;;;;8.63;6.97;;;12.80;99.90;;;;;;4972265;28;20105;-40
2022/04/01 05:52:24;;;;;;;9.68;7.65;;;12.70;99.90;;;;;;4974354;28;20038;-40
2022/04/01 05:54:51;;;;;;;11.68;7.90;;;12.80;99.90;;;;;;4973756;28;20046;-40
2022/04/01 05:57:20;;;;;;;11.35;7.28;;;12.80;99.90;;;;;;4974205;28;20034;-40
2022/04/01 05:59:47;;;;;;;12.50;8.05;;;12.80;99.90;;;;;;4973559;28;20095;-40
2022/04/01 06:02:36;;;;;;;11.13;7.32;;;12.90;99.90;;;;;;4974145;28;20033;-40
2022/04/01 06:05:29;;;;;;;9.93;7.47;;;12.70;99.90;;;;;;4973328;28;20479;-40
2022/04/01 06:07:55;;;;;;;10.93;8.05;;;12.90;99.90;;;;;;4968160;28;20047;-40
2022/04/01 06:10:51;;;;;;;10.07;8.10;;;12.80;99.90;;;;;;4973266;28;20098;-40
2022/04/01 06:13:55;;;;;;;11.43;7.65;;;12.60;99.90;;;;;;4974022;28;20052;-39
2022/04/01 06:16:43;;;;;;;10.73;6.97;;;12.80;99.90;;;;;;4954994;28;20049;-39
2022/04/01 06:19:21;;;;;;;9.25;6.63;;;12.80;99.90;;;;;;4973436;28;20035;-39
2022/04/01 06:21:58;;;;;;;6.80;5.47;;;12.80;99.90;;;;;;4954610;29;20078;-39
2022/04/01 06:24:35;;;;;;;8.25;5.68;;;12.80;99.90;;;;;;4955839;28;20031;-39
2022/04/01 06:27:01;;;;;;;9.15;5.65;;;13.00;99.90;;;;;;4973942;28;20027;-39
2022/04/01 06:29:37;;;;;;;8.10;5.90;;;12.90;99.90;;;;;;4972936;28;20041;-39
2022/04/01 06:32:13;;;;;;;8.50;5.15;;;13.00;99.90;;;;;;4973881;28;20042;-39
2022/04/01 06:35:00;;;;;;;5.20;3.88;;;13.10;98.80;;;;;;4973335;28;20018;-40
2022/04/01 06:37:32;;;;;;;4.68;4.05;;;12.80;98.40;;;;;;4972452;28;20058;-40
2022/04/01 06:43:19;;;;;;;6.32;4.53;;;12.90;99.20;;;;;;4972925;28;20162;-39
2022/04/01 06:45:45;;;;;;;7.78;5.35;;;13.00;99.90;;;;;;4969907;28;20118;-39
2022/04/01 06:48:11;;;;;;;7.38;5.22;;;12.80;98.10;;;;;;4972531;28;20053;-40
2022/04/01 06:50:37;;;;;;;7.50;4.90;;;12.90;99.20;;;;;;4972486;28;20031;-39
2022/04/01 06:53:04;;;;;;;7.05;5.40;;;12.90;96.20;;;;;;4971796;28;20046;-39
2022/04/01 06:55:30;;;;;;;16.33;9.50;;;13.00;99.80;;;;;;4970861;28;20392;-40
2022/04/01 06:57:56;;;;;;;13.15;8.70;;;13.10;99.70;;;;;;4969652;28;20045;-39
2022/04/01 07:00:22;;;;;;;13.48;9.57;;;13.00;99.90;;;;;;4971881;28;20106;-39
2022/04/01 07:02:49;;;;;;;12.23;9.65;;;13.00;99.90;;;;;;4973103;28;20037;-40
2022/04/01 07:05:15;;;;;;;11.98;9.57;;;12.90;99.90;;;;;;4972198;28;20038;-39
2022/04/01 07:07:44;;;;;;;11.60;8.80;;;12.90;99.90;;;;;;4971517;28;20401;-39
2022/04/01 07:10:13;;;;;;;10.73;8.82;;;12.90;99.90;;;;;;4973083;28;20097;-39
2022/04/01 07:12:39;;;;;;;11.85;9.20;;;12.70;99.90;;;;;;4971695;28;20085;-39
2022/04/01 07:15:08;;;;;;;11.85;8.40;;;12.70;99.90;;;;;;4971952;28;20031;-40
2022/04/01 07:17:34;;;;;;;11.68;7.60;;;12.70;99.60;;;;;;4955070;28;20027;-39
2022/04/01 07:20:00;;;;;;;11.48;7.72;;;12.70;98.60;;;;;;4970111;28;20031;-39
2022/04/01 07:22:26;;;;;;;11.73;7.60;;;12.80;99.20;;;;;;4972369;28;20035;-40
2022/04/01 07:24:51;;;;;;;10.82;7.28;;;12.80;98.30;;;;;;4973031;28;20026;-40
2022/04/01 07:27:17;;;;;;;12.70;9.15;;;12.70;98.80;;;;;;4972250;28;20030;-40
2022/04/01 07:29:43;;;;;;;9.48;7.60;;;12.80;99.80;;;;;;4974304;28;20030;-40
2022/04/01 07:34:53;;;;;;;11.93;8.68;;;12.90;99.40;;;;;;4977030;28;20418;-40
2022/04/01 07:37:22;;;;;;;10.27;8.35;;;12.80;99.00;;;;;;4958496;28;20026;-39
2022/04/01 07:39:48;;;;;;;10.15;8.43;;;12.90;99.60;;;;;;4977214;28;20030;-40
2022/04/01 07:42:14;;;;;;;16.02;10.15;;;13.10;99.80;;;;;;4974558;28;20031;-40
2022/04/01 07:44:40;;;;;;;12.30;9.32;;;13.10;98.30;;;;;;4974941;28;20123;-40
2022/04/01 07:47:09;;;;;;;13.63;7.95;;;13.20;99.20;;;;;;4976254;28;20047;-40
2022/04/01 07:49:40;;;;;;;10.05;8.02;;;13.30;99.40;;;;;;4976708;28;20041;-40
2022/04/01 07:52:08;;;;;;;14.30;8.68;;;13.30;99.00;;;;;;4973458;28;20061;-40
2022/04/01 07:54:35;;;;;;;12.82;8.45;;;13.00;98.00;;;;;;4976390;28;20034;-40
2022/04/01 07:57:05;;;;;;;9.45;7.97;;;13.20;99.30;;;;;;4974287;28;20033;-40
2022/04/01 07:59:30;;;;;;;11.27;8.00;;;13.10;99.90;;;;;;4976480;28;20030;-40
2022/04/01 08:01:57;;;;;;;10.73;9.60;;;13.20;99.90;;;;;;4975051;28;20041;-40
2022/04/01 08:04:25;;;;;;;15.93;10.55;;;13.20;98.80;;;;;;4976216;28;20039;-40
2022/04/01 08:06:54;;;;;;;9.73;7.15;;;13.20;99.30;;;;;;4975822;28;20049;-40
2022/04/01 08:09:20;;;;;;;9.23;6.82;;;13.20;97.70;;;;;;4976412;28;20124;-40
2022/04/01 08:11:47;;;;;;;9.25;6.32;;;13.20;97.50;;;;;;4973895;28;20122;-40
2022/04/01 08:14:12;;;;;;;9.15;7.40;;;13.30;98.30;;;;;;4973986;28;20472;-40
2022/04/01 08:16:38;;;;;;;10.40;5.93;;;13.10;97.70;;;;;;4974716;28;20125;-40
2022/04/01 08:19:05;;;;;;;7.50;5.15;;;13.20;96.00;;;;;;4975164;28;20106;-40
2022/04/01 08:21:32;;;;;;;7.82;5.03;;;13.20;93.90;;;;;;4975156;28;20031;-39
2022/04/01 08:24:00;;;;;;;5.97;4.25;;;13.10;95.80;;;;;;4976109;28;20022;-40
2022/04/01 08:26:26;;;;;;;6.22;4.38;;;13.20;94.00;;;;;;4974870;28;20023;-40
2022/04/01 08:28:52;;;;;;;5.65;4.90;;;13.40;95.60;;;;;;4975270;28;20042;-39
2022/04/01 08:31:19;;;;;;;11.15;5.72;;;13.60;95.40;;;;;;4975709;28;20105;-40
2022/04/01 08:33:46;;;;;;;9.50;5.70;;;13.50;95.00;;;;;;4958040;28;20122;-39
2022/04/01 08:36:12;;;;;;;8.13;5.40;;;13.60;93.60;;;;;;4975809;28;20026;-40
2022/04/01 08:38:38;;;;;;;9.23;5.63;;;13.50;93.40;;;;;;4974295;28;20031;-39
2022/04/01 08:41:04;;;;;;;9.40;5.93;;;13.50;95.30;;;;;;4973998;28;20441;-39
2022/04/01 08:43:31;;;;;;;7.90;6.07;;;13.50;94.10;;;;;;4974808;28;20377;-39
2022/04/01 08:46:00;;;;;;;6.60;5.60;;;13.50;94.20;;;;;;4976047;28;20023;-39
2022/04/01 08:48:27;;;;;;;7.22;4.57;;;13.50;94.70;;;;;;4974707;28;20378;-40
2022/04/01 08:50:54;;;;;;;5.18;4.30;;;13.40;92.20;;;;;;4974598;28;20496;-39
2022/04/01 08:53:20;;;;;;;8.95;8.05;;;13.50;92.30;;;;;;4973195;28;20042;-39
2022/04/01 09:02:30;;;;;;;4.07;3.50;;;13.70;89.90;;;;;;4976445;28;20124;-39
2022/04/01 09:05:07;;;;;;;9.52;2.88;;;13.90;91.80;;;;;;4973372;28;20122;-40
2022/04/01 09:07:32;;;;;;;3.00;2.75;;;14.10;90.40;;;;;;4975352;28;20030;-39
2022/04/01 09:10:04;;;;;;;2.53;2.15;;;14.30;90.50;;;;;;4956787;28;20437;-39
2022/04/01 09:12:29;;;;;;;3.90;2.90;;;14.50;88.60;;;;;;4957702;28;20030;-39
2022/04/01 09:14:57;;;;;;;3.15;2.60;;;14.40;88.00;;;;;;4974516;28;20109;-39
2022/04/01 09:17:38;;;;;;;5.75;2.53;;;14.50;91.10;;;;;;4973803;28;20049;-39
2022/04/01 09:20:06;;;;;;;6.15;2.80;;;14.60;89.10;;;;;;4973439;28;20388;-39
2022/04/01 09:22:32;;;;;;;2.80;2.22;;;14.80;88.20;;;;;;4975036;28;20110;-40
2022/04/01 09:25:04;;;;;;;3.58;1.77;;;14.80;80.30;;;;;;4974529;28;20035;-40
2022/04/01 09:27:44;;;;;;;2.33;1.98;;;14.50;83.60;;;;;;4974222;28;20081;-40
2022/04/01 09:30:27;;;;;;;3.88;2.10;;;14.50;80.20;;;;;;4944116;28;20043;-40
2022/04/01 09:33:03;;;;;;;3.20;2.47;;;14.60;75.70;;;;;;4966259;28;20050;-40
2022/04/01 09:35:31;;;;;;;2.00;1.80;;;14.50;78.50;;;;;;4974690;28;20033;-40
2022/04/01 09:37:59;;;;;;;2.17;1.75;;;14.40;76.20;;;;;;4957353;28;20034;-39
2022/04/01 09:40:26;;;;;;;4.38;2.75;;;14.20;75.40;;;;;;4974050;28;20039;-39
2022/04/01 09:42:57;;;;;;;2.60;2.40;;;14.40;78.30;;;;;;4974552;28;20035;-39
2022/04/01 09:45:24;;;;;;;2.45;2.10;;;14.60;78.90;;;;;;4973761;28;20074;-39
2022/04/01 09:48:00;;;;;;;3.05;2.72;;;14.70;82.50;;;;;;4974571;28;20199;-39
2022/04/01 09:50:33;;;;;;;3.67;2.92;;;14.80;81.40;;;;;;4973202;28;20381;-39
2022/04/01 09:53:17;;;;;;;8.27;6.90;;;14.70;80.80;;;;;;4974168;28;20046;-39
2022/04/01 09:55:45;;;;;;;4.30;2.70;;;14.60;79.10;;;;;;4973632;28;20027;-39
2022/04/01 09:58:11;;;;;;;2.42;2.22;;;14.60;81.80;;;;;;4971268;28;20058;-40
2022/04/01 10:00:39;;;;;;;3.38;2.45;;;14.60;80.50;;;;;;4955301;28;20030;-39
2022/04/01 10:03:06;;;;;;;3.08;2.30;;;14.70;77.80;;;;;;4974148;28;20027;-39
2022/04/01 10:05:42;;;;;;;1.77;1.52;;;14.80;76.50;;;;;;4973208;28;20113;-40
2022/04/01 10:08:11;;;;;;;1.70;1.60;;;14.60;67.70;;;;;;4974029;28;20035;-39
2022/04/01 10:10:37;;;;;;;2.20;1.50;;;14.70;73.20;;;;;;4973908;28;20031;-40
2022/04/01 10:16:26;;;;;;;0.80;0.80;;;14.70;63.60;;;;;;4979446;28;20098;-40
2022/04/01 10:18:53;;;;;;;1.70;1.60;;;14.80;66.70;;;;;;4973952;28;20023;-40
2022/04/01 10:21:19;;;;;;;3.25;1.20;;;15.00;68.00;;;;;;4974192;28;20026;-40
2022/04/01 10:27:07;;;;;;;1.40;1.10;;;15.40;66.20;;;;;;4974172;28;20042;-39
2022/04/01 10:29:35;;;;;;;1.25;1.15;;;15.70;59.70;;;;;;4953528;28;20065;-39
2022/04/01 10:32:19;;;;;;;1.00;0.90;;;;;;;;;;4972911;28;20026;-40
2022/04/01 10:34:46;;;;;;;0.55;0.55;;;15.80;55.50;;;;;;4970822;28;20035;-40
2022/04/01 10:37:14;;;;;;;0.47;0.30;;;15.80;61.30;;;;;;4971372;28;20473;-41
2022/04/01 10:39:51;;;;;;;1.25;0.93;;;16.10;60.30;;;;;;4954865;28;20035;-40
2022/04/01 10:42:17;;;;;;;1.70;1.23;;;16.10;52.50;;;;;;4973830;28;20049;-41
2022/04/01 10:44:48;;;;;;;1.05;0.88;;;16.00;50.50;;;;;;4972966;28;20038;-40
2022/04/01 10:47:14;;;;;;;2.70;0.77;;;15.90;50.80;;;;;;4973571;28;20548;-40
2022/04/01 10:52:24;;;;;;;5.53;2.33;;;16.10;56.10;;;;;;4973862;28;20111;-40
2022/04/01 10:55:03;;;;;;;2.42;2.22;;;16.00;57.50;;;;;;4972818;28;20278;-40
2022/04/01 10:57:31;;;;;;;3.63;2.80;;;16.20;60.20;;;;;;4973461;28;20544;-40
2022/04/01 11:00:15;;;;;;;4.68;2.58;;;16.20;60.00;;;;;;4972653;28;20030;-40
2022/04/01 11:02:46;;;;;;;4.32;3.92;;;16.10;58.60;;;;;;4971942;28;20027;-40
2022/04/01 11:05:29;;;;;;;3.47;2.85;;;16.10;59.50;;;;;;4958927;28;20051;-40
2022/04/01 11:08:20;;;;;;;2.90;2.60;;;16.30;57.90;;;;;;4934917;29;20028;-40
2022/04/01 11:11:06;;;;;;;5.68;3.80;;;16.40;56.70;;;;;;4948705;29;20126;-40
2022/04/01 11:13:32;;;;;;;8.80;4.30;;;16.70;60.00;;;;;;4935020;29;20060;-40
2022/04/01 11:16:13;;;;;;;5.32;3.58;;;16.90;59.70;;;;;;4933990;29;20396;-40
2022/04/01 11:19:10;;;;;;;5.80;4.40;;;17.10;58.20;;;;;;4946876;29;20094;-40
2022/04/01 11:21:43;;;;;;;4.00;3.60;;;17.10;59.10;;;;;;4934091;29;20435;-40
2022/04/01 11:24:38;;;;;;;6.10;3.78;;;17.00;60.10;;;;;;4934485;29;20084;-40
2022/04/01 11:27:22;;;;;;;4.05;3.65;;;17.00;60.80;;;;;;4934680;29;20474;-40
2022/04/01 11:30:13;;;;;;;3.60;3.30;;;16.80;59.50;;;;;;4934170;29;20514;-40
2022/04/01 11:32:41;;;;;;;4.80;3.80;;;16.80;57.70;;;;;;4934675;29;20032;-40
2022/04/01 11:35:09;;;;;;;3.92;3.63;;;16.90;61.40;;;;;;4933681;29;20107;-40
2022/04/01 11:37:37;;;;;;;4.28;3.88;;;17.00;56.90;;;;;;4934659;29;20035;-40
2022/04/01 11:40:17;;;;;;;3.92;3.50;;;17.10;58.90;;;;;;4933769;29;20035;-40
2022/04/01 11:43:03;;;;;;;5.13;3.60;;;16.90;54.10;;;;;;4933974;29;20122;-40
2022/04/01 11:45:34;;;;;;;4.47;4.00;;;16.80;59.00;;;;;;4934075;29;20035;-41
2022/04/01 11:48:01;;;;;;;4.15;3.83;;;16.70;60.40;;;;;;4949067;29;20031;-41
2022/04/01 11:50:27;;;;;;;4.40;4.00;;;16.60;59.70;;;;;;4933610;29;20055;-41
2022/04/01 11:52:57;;;;;;;4.00;3.20;;;16.60;59.80;;;;;;4932949;29;20044;-41
2022/04/01 11:55:26;;;;;;;5.22;4.32;;;16.50;58.20;;;;;;4933707;29;20032;-41
2022/04/01 11:57:54;;;;;;;4.05;3.72;;;16.50;58.60;;;;;;4934359;29;20067;-41
2022/04/01 12:00:23;;;;;;;5.55;4.75;;;16.60;61.30;;;;;;4933538;29;20036;-40
2022/04/01 12:02:52;;;;;;;5.72;5.15;;;16.70;58.60;;;;;;4934660;29;20028;-41
2022/04/01 12:05:19;;;;;;;10.50;5.13;;;17.00;59.20;;;;;;4952179;28;20065;-41
2022/04/01 12:10:41;;;;;;;5.57;4.68;;;17.20;56.80;;;;;;4971387;28;20129;-39
2022/04/01 12:13:09;;;;;;;7.05;5.15;;;17.30;57.30;;;;;;4971926;28;20043;-40
2022/04/01 12:15:40;;;;;;;6.22;4.90;;;17.50;56.80;;;;;;4973930;28;20074;-39
2022/04/01 12:18:13;;;;;;;6.00;5.40;;;17.80;55.20;;;;;;4976149;28;20031;-40
2022/04/01 12:20:43;;;;;;;5.90;4.70;;;18.00;54.00;;;;;;4957830;28;20031;-39
2022/04/01 12:23:09;;;;;;;5.28;4.80;;;18.20;47.90;;;;;;4976125;28;20022;-40
2022/04/01 12:25:38;;;;;;;5.72;4.97;;;18.50;50.80;;;;;;4975343;28;20515;-40
2022/04/01 12:28:09;;;;;;;5.32;4.93;;;19.30;49.00;;;;;;4975961;28;20022;-40
2022/04/01 12:30:43;;;;;;;5.28;4.88;;;21.10;41.70;;;;;;4975204;28;20042;-39
2022/04/01 12:33:11;;;;;;;7.07;6.13;;;24.20;30.60;;;;;;4976045;28;20030;-40
2022/04/01 12:36:07;;;;;;;6.82;5.47;;;27.00;24.20;;;;;;4975116;28;20476;-40
2022/04/01 12:38:35;;;;;;;4.97;4.57;;;24.60;20.00;;;;;;4974482;28;20442;-40
2022/04/01 12:41:16;;;;;;;5.05;4.65;;;21.80;26.80;;;;;;4973625;28;20037;-40
2022/04/01 12:43:44;;;;;;;8.00;5.25;;;20.90;29.20;;;;;;4976046;28;20035;-40
2022/04/01 12:46:31;;;;;;;5.47;5.07;;;20.50;29.10;;;;;;4973333;28;20107;-39
2022/04/01 12:49:00;;;;;;;6.68;5.75;;;20.20;31.00;;;;;;4974767;28;20026;-39
2022/04/01 12:51:31;;;;;;;6.43;5.78;;;20.90;31.50;;;;;;4974868;28;20460;-39
2022/04/01 12:54:05;;;;;;;6.40;5.80;;;21.60;28.20;;;;;;4973738;28;20049;-39
2022/04/01 12:56:31;;;;;;;;;;;24.50;25.00;;;;;;4974983;28;20023;-39
2022/04/01 12:59:03;;;;;;;6.78;6.20;;;25.20;20.20;;;;;;4973866;28;19906;-39
2022/04/01 13:01:31;;;;;;;7.63;6.88;;;22.90;23.20;;;;;;4974571;28;20169;-39
2022/04/01 13:03:58;;;;;;;8.48;6.50;;;20.50;29.70;;;;;;4975393;28;20027;-40
2022/04/01 13:06:25;;;;;;;7.75;6.85;;;19.80;31.80;;;;;;4974450;28;20484;-40
2022/04/01 13:09:07;;;;;;;7.30;6.70;;;19.20;33.40;;;;;;4975339;28;20019;-40
2022/04/01 13:11:44;;;;;;;7.82;6.88;;;19.10;34.00;;;;;;4972335;28;20043;-40
2022/04/01 13:14:25;;;;;;;8.60;6.35;;;21.50;27.50;;;;;;4974428;28;20031;-40
2022/04/01 13:16:56;;;;;;;7.47;6.80;;;23.60;25.20;;;;;;4975245;28;20154;-40
2022/04/01 13:19:28;;;;;;;8.05;6.20;;;27.10;18.60;;;;;;4974518;28;20030;-40
2022/04/01 13:24:57;;;;;;;7.90;7.18;;;29.60;11.00;;;;;;4975617;28;20042;-40
2022/04/01 13:27:23;;;;;;;8.32;6.53;;;31.60;9.90;;;;;;4974431;28;20121;-40
2022/04/01 13:29:49;;;;;;;7.50;6.80;;;31.20;10.90;;;;;;4956763;28;20019;-40